createdAt,value
2024-03-03T00:01:51.973Z,7.15
2024-03-03T00:04:19.557Z,6.92
2024-03-03T00:06:47.524Z,7.14
2024-03-03T00:09:14.979Z,6.67
2024-03-03T00:11:42.207Z,6.73
2024-03-03T00:14:09.533Z,7.16
2024-03-03T00:16:42.055Z,6.67
2024-03-03T00:19:10.049Z,7.05
2024-03-03T00:21:37.466Z,7.04
2024-03-03T00:24:05.313Z,6.97
2024-03-03T00:26:34.563Z,6.83
2024-03-03T00:29:02.353Z,7.01
2024-03-03T00:31:29.648Z,6.73
2024-03-03T00:33:57.125Z,6.72
2024-03-03T00:36:25.534Z,6.40
2024-03-03T00:38:52.756Z,6.90
2024-03-03T00:41:20.355Z,6.68
2024-03-03T00:43:47.776Z,6.76
2024-03-03T00:46:15.139Z,6.68
2024-03-03T00:48:43.094Z,7.00
2024-03-03T00:51:10.641Z,6.45
2024-03-03T00:53:38.005Z,6.70
2024-03-03T00:56:06.892Z,6.95
2024-03-03T00:58:34.555Z,6.58
2024-03-03T01:01:01.956Z,6.86
2024-03-03T01:03:33.592Z,6.71
2024-03-03T01:06:01.257Z,6.87
2024-03-03T01:08:28.605Z,6.85
2024-03-03T01:10:56.188Z,6.86
2024-03-03T01:13:31.714Z,6.48
2024-03-03T01:15:59.148Z,6.71
2024-03-03T01:18:26.738Z,6.70
2024-03-03T01:20:54.118Z,6.86
2024-03-03T01:23:21.600Z,6.56
2024-03-03T01:25:51.586Z,6.57
2024-03-03T01:28:19.665Z,6.38
2024-03-03T01:30:47.131Z,6.51
2024-03-03T01:33:14.586Z,6.73
2024-03-03T01:35:41.947Z,6.64
2024-03-03T01:38:09.324Z,6.19
2024-03-03T01:40:36.910Z,6.49
2024-03-03T01:43:06.097Z,6.51
2024-03-03T01:45:33.632Z,6.44
2024-03-03T01:48:01.482Z,5.90
2024-03-03T01:50:30.510Z,6.24
2024-03-03T01:52:58.380Z,6.63
2024-03-03T01:55:26.509Z,6.06
2024-03-03T01:57:58.274Z,6.60
2024-03-03T02:00:26.929Z,6.41
2024-03-03T02:02:54.449Z,6.38
2024-03-03T02:05:24.854Z,6.33
2024-03-03T02:07:53.486Z,6.32
2024-03-03T02:10:23.659Z,6.15
2024-03-03T02:12:53.671Z,6.58
2024-03-03T02:15:24.371Z,6.43
2024-03-03T02:17:53.900Z,5.93
2024-03-03T02:20:21.651Z,4.93
2024-03-03T02:22:52.185Z,6.46
2024-03-03T02:25:19.799Z,6.28
2024-03-03T02:27:50.314Z,6.14
2024-03-03T02:30:17.856Z,6.39
2024-03-03T02:32:52.094Z,5.97
2024-03-03T02:35:21.112Z,6.24
2024-03-03T02:37:48.870Z,5.03
2024-03-03T02:40:16.697Z,5.85
2024-03-03T02:42:44.203Z,6.23
2024-03-03T02:45:11.781Z,6.13
2024-03-03T02:47:39.640Z,4.95
2024-03-03T02:50:07.768Z,5.87
2024-03-03T02:52:35.870Z,5.38
2024-03-03T02:55:03.673Z,6.06
2024-03-03T02:57:31.381Z,5.63
2024-03-03T02:59:58.857Z,4.99
2024-03-03T03:02:26.416Z,5.82
2024-03-03T03:04:54.089Z,5.37
2024-03-03T03:07:21.329Z,4.53
2024-03-03T03:09:48.814Z,5.34
2024-03-03T03:12:16.358Z,5.51
2024-03-03T03:14:44.538Z,5.81
2024-03-03T03:17:12.108Z,4.01
2024-03-03T03:19:39.705Z,5.53
2024-03-03T03:22:10.418Z,4.52
2024-03-03T03:24:37.930Z,5.51
2024-03-03T03:27:06.359Z,4.92
2024-03-03T03:29:33.821Z,5.77
2024-03-03T03:32:01.068Z,5.24
2024-03-03T03:34:31.507Z,4.60
2024-03-03T03:36:59.088Z,5.65
2024-03-03T03:39:26.937Z,4.32
2024-03-03T03:41:54.422Z,4.34
2024-03-03T03:44:22.283Z,4.69
2024-03-03T03:46:49.832Z,5.11
2024-03-03T03:49:17.537Z,5.42
2024-03-03T03:51:45.223Z,5.27
2024-03-03T03:54:12.956Z,5.57
2024-03-03T03:56:40.374Z,5.68
2024-03-03T03:59:10.424Z,5.22
2024-03-03T04:01:38.044Z,5.42
2024-03-03T04:04:05.951Z,4.66
2024-03-03T04:06:33.522Z,3.79
2024-03-03T04:09:04.070Z,5.00
2024-03-03T04:11:31.834Z,2.94
2024-03-03T04:13:59.327Z,4.67
2024-03-03T04:16:27.012Z,3.70
2024-03-03T04:18:54.564Z,4.28
2024-03-03T04:21:22.187Z,4.49
2024-03-03T04:23:49.510Z,2.71
2024-03-03T04:26:16.921Z,4.55
2024-03-03T04:28:44.498Z,3.61
2024-03-03T04:31:11.914Z,4.49
2024-03-03T04:33:39.887Z,4.22
2024-03-03T04:36:13.009Z,5.24
2024-03-03T04:38:46.303Z,3.54
2024-03-03T04:41:17.643Z,5.03
2024-03-03T04:43:47.237Z,3.94
2024-03-03T04:46:19.485Z,3.70
2024-03-03T04:48:47.648Z,5.33
2024-03-03T04:51:15.369Z,4.14
2024-03-03T04:53:42.815Z,3.27
2024-03-03T04:56:10.402Z,4.03
2024-03-03T04:58:37.688Z,4.16
2024-03-03T05:01:05.522Z,4.63
2024-03-03T05:03:32.993Z,2.32
2024-03-03T05:06:00.451Z,3.47
2024-03-03T05:08:27.843Z,5.28
2024-03-03T05:10:55.124Z,4.61
2024-03-03T05:13:22.368Z,4.37
2024-03-03T05:15:49.869Z,4.20
2024-03-03T05:18:19.323Z,3.50
2024-03-03T05:20:46.682Z,4.70
2024-03-03T05:23:14.150Z,5.25
2024-03-03T05:25:42.127Z,3.09
2024-03-03T05:28:09.578Z,3.30
2024-03-03T05:30:38.291Z,5.11
2024-03-03T05:33:07.503Z,4.75
2024-03-03T05:35:37.895Z,5.15
2024-03-03T05:38:05.853Z,5.05
2024-03-03T05:40:33.204Z,3.78
2024-03-03T05:43:01.772Z,3.61
2024-03-03T05:45:29.137Z,4.69
2024-03-03T05:47:56.540Z,4.62
2024-03-03T05:50:23.800Z,4.72
2024-03-03T05:52:51.094Z,4.69
2024-03-03T05:55:18.610Z,3.67
2024-03-03T05:57:48.500Z,4.51
2024-03-03T06:00:17.343Z,5.20
2024-03-03T06:02:46.878Z,4.39
2024-03-03T06:05:14.137Z,4.78
2024-03-03T06:07:41.461Z,5.24
2024-03-03T06:10:09.149Z,5.27
2024-03-03T06:12:36.530Z,4.93
2024-03-03T06:15:04.033Z,5.15
2024-03-03T06:17:31.694Z,4.88
2024-03-03T06:19:59.228Z,4.85
2024-03-03T06:22:26.617Z,4.83
2024-03-03T06:24:56.825Z,5.48
2024-03-03T06:27:24.203Z,5.04
2024-03-03T06:29:51.773Z,5.01
2024-03-03T06:32:19.334Z,5.64
2024-03-03T06:34:48.565Z,5.20
2024-03-03T06:37:16.940Z,5.42
2024-03-03T06:39:45.850Z,5.41
2024-03-03T06:42:13.454Z,5.66
2024-03-03T06:44:44.123Z,5.64
2024-03-03T06:47:11.548Z,5.04
2024-03-03T06:49:39.000Z,5.67
2024-03-03T06:52:06.450Z,5.23
2024-03-03T06:54:34.229Z,5.75
2024-03-03T06:57:01.620Z,5.76
2024-03-03T06:59:29.058Z,5.98
2024-03-03T07:01:56.545Z,6.12
2024-03-03T07:04:26.910Z,6.08
2024-03-03T07:06:55.560Z,5.93
2024-03-03T07:09:28.308Z,5.90
2024-03-03T07:11:56.910Z,5.78
2024-03-03T07:14:25.189Z,5.71
2024-03-03T07:16:52.647Z,6.08
2024-03-03T07:19:20.238Z,5.91
2024-03-03T07:21:47.918Z,6.21
2024-03-03T07:24:28.654Z,6.42
2024-03-03T07:26:57.026Z,6.42
2024-03-03T07:29:25.009Z,6.48
2024-03-03T07:31:53.284Z,6.58
2024-03-03T07:34:20.664Z,6.87
2024-03-03T07:36:48.145Z,6.53
2024-03-03T07:39:16.922Z,6.91
2024-03-03T07:41:45.075Z,7.30
2024-03-03T07:44:12.726Z,6.89
2024-03-03T07:46:40.724Z,6.75
2024-03-03T07:49:07.968Z,7.21
2024-03-03T07:51:36.167Z,7.18
2024-03-03T07:54:03.714Z,7.58
2024-03-03T07:56:33.836Z,7.45
2024-03-03T07:59:07.059Z,7.08
2024-03-03T08:01:37.696Z,7.08
2024-03-03T08:04:06.029Z,7.31
2024-03-03T08:06:34.016Z,7.68
2024-03-03T08:09:05.262Z,7.85
2024-03-03T08:11:35.064Z,7.88
2024-03-03T08:14:05.957Z,8.04
2024-03-03T08:16:35.243Z,8.13
2024-03-03T08:19:02.729Z,8.00
2024-03-03T08:21:33.127Z,8.09
2024-03-03T08:24:02.969Z,7.77
2024-03-03T08:26:30.913Z,8.55
2024-03-03T08:28:58.787Z,8.41
2024-03-03T08:31:26.298Z,8.91
2024-03-03T08:33:56.741Z,8.49
2024-03-03T08:36:24.853Z,8.69
2024-03-03T08:38:52.415Z,8.77
2024-03-03T08:41:21.019Z,9.12
2024-03-03T08:43:48.465Z,8.91
2024-03-03T08:46:20.468Z,8.61
2024-03-03T08:48:48.242Z,9.04
2024-03-03T08:51:19.240Z,8.88
2024-03-03T08:53:49.393Z,8.46
2024-03-03T08:56:17.154Z,9.19
2024-03-03T08:58:44.622Z,9.21
2024-03-03T09:01:16.247Z,9.16
2024-03-03T09:03:43.957Z,8.43
2024-03-03T09:06:11.496Z,7.91
2024-03-03T09:08:39.465Z,9.52
2024-03-03T09:11:08.175Z,9.31
2024-03-03T09:13:35.941Z,9.53
2024-03-03T09:16:03.765Z,8.97
2024-03-03T09:18:31.492Z,9.14
2024-03-03T09:20:58.874Z,9.69
2024-03-03T09:23:26.277Z,9.79
2024-03-03T09:25:54.958Z,8.37
2024-03-03T09:28:22.890Z,8.62
2024-03-03T09:30:50.540Z,8.57
2024-03-03T09:33:18.214Z,8.97
2024-03-03T09:35:45.755Z,9.65
2024-03-03T09:38:15.659Z,9.57
2024-03-03T09:40:44.879Z,9.57
2024-03-03T09:43:18.047Z,8.91
2024-03-03T09:45:52.022Z,8.34
2024-03-03T09:48:23.033Z,10.08
2024-03-03T09:50:53.260Z,9.08
2024-03-03T09:53:28.165Z,10.46
2024-03-03T09:55:58.815Z,10.37
2024-03-03T09:58:26.094Z,10.73
2024-03-03T10:00:54.985Z,10.72
2024-03-03T10:03:34.290Z,10.30
2024-03-03T10:06:06.462Z,10.70
2024-03-03T10:08:35.400Z,10.72
2024-03-03T10:11:09.903Z,10.40
2024-03-03T10:13:37.637Z,10.57
2024-03-03T10:16:10.691Z,10.46
2024-03-03T10:18:38.207Z,10.78
2024-03-03T10:21:06.188Z,10.74
2024-03-03T10:23:34.043Z,10.27
2024-03-03T10:26:03.267Z,10.59
2024-03-03T10:28:30.752Z,10.73
2024-03-03T10:31:17.226Z,11.11
2024-03-03T10:33:56.453Z,11.23
2024-03-03T10:36:29.646Z,10.83
2024-03-03T10:38:57.038Z,10.81
2024-03-03T10:41:24.383Z,11.15
2024-03-03T10:43:52.757Z,11.31
2024-03-03T10:46:21.928Z,11.22
2024-03-03T10:48:49.823Z,11.09
2024-03-03T10:51:20.872Z,11.52
2024-03-03T10:53:53.055Z,11.46
2024-03-03T10:56:22.516Z,11.27
2024-03-03T10:58:51.455Z,10.58
2024-03-03T11:01:20.117Z,11.19
2024-03-03T11:03:50.494Z,10.85
2024-03-03T11:06:18.321Z,11.34
2024-03-03T11:08:53.689Z,11.00
2024-03-03T11:11:30.218Z,10.90
2024-03-03T11:14:09.148Z,11.64
2024-03-03T11:16:38.680Z,11.51
2024-03-03T11:19:14.603Z,11.27
2024-03-03T11:21:52.209Z,11.57
2024-03-03T11:24:30.630Z,11.59
2024-03-03T11:27:15.172Z,11.55
2024-03-03T11:29:46.632Z,11.47
2024-03-03T11:32:15.560Z,11.17
2024-03-03T11:34:45.458Z,11.54
2024-03-03T11:37:14.660Z,10.67
2024-03-03T11:40:01.560Z,11.78
2024-03-03T11:42:40.905Z,11.21
2024-03-03T11:45:10.579Z,11.79
2024-03-03T11:47:40.988Z,11.68
2024-03-03T11:50:21.867Z,11.53
2024-03-03T11:52:49.945Z,11.44
2024-03-03T11:55:29.585Z,11.59
2024-03-03T11:58:00.263Z,11.52
2024-03-03T12:00:29.770Z,11.51
2024-03-03T12:02:58.960Z,11.80
2024-03-03T12:05:27.260Z,11.48
2024-03-03T12:07:56.737Z,11.66
2024-03-03T12:10:31.889Z,11.78
2024-03-03T12:13:02.485Z,11.52
2024-03-03T12:15:30.826Z,11.17
2024-03-03T12:18:00.442Z,11.43
2024-03-03T12:20:31.223Z,11.69
2024-03-03T12:22:58.654Z,11.17
2024-03-03T12:25:26.944Z,11.04
2024-03-03T12:27:57.018Z,11.25
2024-03-03T12:30:31.193Z,11.31
2024-03-03T12:32:59.603Z,11.08
2024-03-03T12:35:27.237Z,10.71
2024-03-03T12:37:55.063Z,10.72
2024-03-03T12:40:22.419Z,10.95
2024-03-03T12:42:53.323Z,10.61
2024-03-03T12:45:21.248Z,10.61
2024-03-03T12:47:51.773Z,10.75
2024-03-03T12:50:20.582Z,10.32
2024-03-03T12:52:49.232Z,9.95
2024-03-03T12:55:17.469Z,9.54
2024-03-03T12:57:45.739Z,10.15
2024-03-03T13:00:18.168Z,10.40
2024-03-03T13:02:45.794Z,10.69
2024-03-03T13:05:18.804Z,10.61
2024-03-03T13:07:53.927Z,10.61
2024-03-03T13:10:22.573Z,10.82
2024-03-03T13:12:51.763Z,10.35
2024-03-03T13:15:20.829Z,10.72
2024-03-03T13:18:14.740Z,10.39
2024-03-03T13:20:43.160Z,10.80
2024-03-03T13:23:16.152Z,10.13
2024-03-03T13:25:44.909Z,10.38
2024-03-03T13:28:19.313Z,10.33
2024-03-03T13:31:00.718Z,10.23
2024-03-03T13:33:32.209Z,10.47
2024-03-03T13:36:01.609Z,10.80
2024-03-03T13:38:29.259Z,10.64
2024-03-03T13:40:56.653Z,10.74
2024-03-03T13:43:24.314Z,10.85
2024-03-03T13:45:52.009Z,10.87
2024-03-03T13:48:19.735Z,10.81
2024-03-03T13:50:47.086Z,10.82
2024-03-03T13:53:23.277Z,10.69
2024-03-03T13:55:54.195Z,10.89
2024-03-03T13:58:23.230Z,10.67
2024-03-03T14:00:50.682Z,11.22
2024-03-03T14:03:17.897Z,10.93
2024-03-03T14:05:45.266Z,11.12
2024-03-03T14:08:14.275Z,11.05
2024-03-03T14:10:41.641Z,11.07
2024-03-03T14:13:09.088Z,11.12
2024-03-03T14:15:36.342Z,11.18
2024-03-03T14:18:04.105Z,11.15
2024-03-03T14:20:31.370Z,11.47
2024-03-03T14:22:58.662Z,11.24
2024-03-03T14:25:29.246Z,11.50
2024-03-03T14:28:04.681Z,11.42
2024-03-03T14:30:39.331Z,11.57
2024-03-03T14:33:06.660Z,11.14
2024-03-03T14:35:34.467Z,11.48
2024-03-03T14:38:02.769Z,11.36
2024-03-03T14:40:30.244Z,11.47
2024-03-03T14:42:58.155Z,11.59
2024-03-03T14:45:26.272Z,11.60
2024-03-03T14:47:53.571Z,11.37
2024-03-03T14:50:21.534Z,11.10
2024-03-03T14:52:49.058Z,11.28
2024-03-03T14:55:18.021Z,11.52
2024-03-03T14:57:46.117Z,11.35
2024-03-03T15:00:14.164Z,11.38
2024-03-03T15:02:41.711Z,11.20
2024-03-03T15:05:09.157Z,11.10
2024-03-03T15:07:36.903Z,11.24
2024-03-03T15:10:08.462Z,11.33
2024-03-03T15:12:36.036Z,11.08
2024-03-03T15:15:04.268Z,10.98
2024-03-03T15:17:31.829Z,11.05
2024-03-03T15:19:59.139Z,10.95
2024-03-03T15:22:26.899Z,10.97
2024-03-03T15:24:54.457Z,10.98
2024-03-03T15:27:21.818Z,10.78
2024-03-03T15:29:49.376Z,10.82
2024-03-03T15:32:16.943Z,10.94
2024-03-03T15:34:44.125Z,10.86
2024-03-03T15:37:12.070Z,10.87
2024-03-03T15:39:40.292Z,10.68
2024-03-03T15:42:16.105Z,10.58
2024-03-03T15:44:49.399Z,10.60
2024-03-03T15:47:17.400Z,10.44
2024-03-03T15:49:45.343Z,10.26
2024-03-03T15:52:12.707Z,10.56
2024-03-03T15:54:40.203Z,10.25
2024-03-03T15:57:07.652Z,10.35
2024-03-03T15:59:35.186Z,10.20
2024-03-03T16:02:03.635Z,10.00
2024-03-03T16:04:31.000Z,9.61
2024-03-03T16:07:03.185Z,9.51
2024-03-03T16:09:30.817Z,9.86
2024-03-03T16:11:58.256Z,10.06
2024-03-03T16:14:25.534Z,9.59
2024-03-03T16:16:53.062Z,9.59
2024-03-03T16:19:20.706Z,9.58
2024-03-03T16:21:48.233Z,9.85
2024-03-03T16:24:15.561Z,9.59
2024-03-03T16:26:45.896Z,9.46
2024-03-03T16:29:18.468Z,9.52
2024-03-03T16:31:48.581Z,9.78
2024-03-03T16:34:18.152Z,9.77
2024-03-03T16:36:45.908Z,9.68
2024-03-03T16:39:16.200Z,9.80
2024-03-03T16:41:43.665Z,9.77
2024-03-03T16:44:13.881Z,9.53
2024-03-03T16:46:42.114Z,9.22
2024-03-03T16:49:12.216Z,9.42
2024-03-03T16:51:39.762Z,9.64
2024-03-03T16:54:07.328Z,9.46
2024-03-03T16:56:35.393Z,9.41
2024-03-03T16:59:04.072Z,9.14
2024-03-03T17:01:32.211Z,9.56
2024-03-03T17:04:00.563Z,9.48
2024-03-03T17:06:29.758Z,8.68
2024-03-03T17:08:57.442Z,8.08
2024-03-03T17:11:26.282Z,9.12
2024-03-03T17:13:53.677Z,9.03
2024-03-03T17:16:22.026Z,9.17
2024-03-03T17:18:49.792Z,9.17
2024-03-03T17:21:17.287Z,9.25
2024-03-03T17:23:44.807Z,8.89
2024-03-03T17:26:12.478Z,9.36
2024-03-03T17:28:41.724Z,8.81
2024-03-03T17:31:09.233Z,8.91
2024-03-03T17:33:36.970Z,8.61
2024-03-03T17:36:05.788Z,8.41
2024-03-03T17:38:34.353Z,8.69
2024-03-03T17:41:02.426Z,8.21
2024-03-03T17:43:32.028Z,8.61
2024-03-03T17:46:00.016Z,8.26
2024-03-03T17:48:27.456Z,7.73
2024-03-03T17:50:54.959Z,8.39
2024-03-03T17:53:22.769Z,8.15
2024-03-03T17:55:52.195Z,8.17
2024-03-03T17:58:19.639Z,8.41
2024-03-03T18:00:47.200Z,7.98
2024-03-03T18:03:14.703Z,8.26
2024-03-03T18:05:42.710Z,8.29
2024-03-03T18:08:10.072Z,8.09
2024-03-03T18:10:37.412Z,8.33
2024-03-03T18:13:05.033Z,8.18
2024-03-03T18:15:32.492Z,8.37
2024-03-03T18:17:59.766Z,8.09
2024-03-03T18:20:27.027Z,8.44
2024-03-03T18:22:54.391Z,8.42
2024-03-03T18:25:21.718Z,8.29
2024-03-03T18:27:49.140Z,8.26
2024-03-03T18:30:17.036Z,8.40
2024-03-03T18:32:44.662Z,8.20
2024-03-03T18:35:12.176Z,8.07
2024-03-03T18:37:39.638Z,7.72
2024-03-03T18:40:09.638Z,8.20
2024-03-03T18:42:37.319Z,7.74
2024-03-03T18:45:08.172Z,7.90
2024-03-03T18:47:35.870Z,8.26
2024-03-03T18:50:04.425Z,7.76
2024-03-03T18:52:31.805Z,7.66
2024-03-03T18:55:00.651Z,8.07
2024-03-03T18:57:28.517Z,8.03
2024-03-03T18:59:56.013Z,7.91
2024-03-03T19:02:26.774Z,7.70
2024-03-03T19:04:54.438Z,7.58
2024-03-03T19:07:21.902Z,7.56
2024-03-03T19:09:50.084Z,7.55
2024-03-03T19:12:17.388Z,7.69
2024-03-03T19:14:44.854Z,7.70
2024-03-03T19:17:12.206Z,7.58
2024-03-03T19:19:40.374Z,7.72
2024-03-03T19:22:07.708Z,7.51
2024-03-03T19:24:35.019Z,7.15
2024-03-03T19:27:02.481Z,7.23
2024-03-03T19:29:30.214Z,7.27
2024-03-03T19:31:57.392Z,7.36
2024-03-03T19:34:24.765Z,6.85
2024-03-03T19:36:52.101Z,5.96
2024-03-03T19:39:19.474Z,6.83
2024-03-03T19:41:47.960Z,7.22
2024-03-03T19:44:16.714Z,6.34
2024-03-03T19:46:44.161Z,6.64
2024-03-03T19:49:12.557Z,6.57
2024-03-03T19:51:39.958Z,6.79
2024-03-03T19:54:10.038Z,6.84
2024-03-03T19:56:37.453Z,6.09
2024-03-03T19:59:04.792Z,6.58
2024-03-03T20:01:32.413Z,6.94
2024-03-03T20:03:59.946Z,6.82
2024-03-03T20:06:27.446Z,6.93
2024-03-03T20:08:54.743Z,6.62
2024-03-03T20:11:22.235Z,6.23
2024-03-03T20:13:51.034Z,6.21
2024-03-03T20:16:18.615Z,6.43
2024-03-03T20:18:49.881Z,6.19
2024-03-03T20:21:17.691Z,6.06
2024-03-03T20:23:46.733Z,6.40
2024-03-03T20:26:14.044Z,6.32
2024-03-03T20:28:41.300Z,6.33
2024-03-03T20:31:08.614Z,6.74
2024-03-03T20:33:35.927Z,6.33
2024-03-03T20:36:03.888Z,6.39
2024-03-03T20:38:31.670Z,6.39
2024-03-03T20:40:59.135Z,6.30
2024-03-03T20:43:27.371Z,5.75
2024-03-03T20:45:54.867Z,6.21
2024-03-03T20:48:22.448Z,6.08
2024-03-03T20:50:49.984Z,6.68
2024-03-03T20:53:17.786Z,6.02
2024-03-03T20:55:47.968Z,6.61
2024-03-03T20:58:15.410Z,6.36
2024-03-03T21:00:43.589Z,6.31
2024-03-03T21:03:11.092Z,6.33
2024-03-03T21:05:38.867Z,6.62
2024-03-03T21:08:10.629Z,5.66
2024-03-03T21:10:38.818Z,6.11
2024-03-03T21:13:06.327Z,6.09
2024-03-03T21:15:33.826Z,6.39
2024-03-03T21:18:01.283Z,5.94
2024-03-03T21:20:28.966Z,6.44
2024-03-03T21:22:56.326Z,6.33
2024-03-03T21:25:24.506Z,6.60
2024-03-03T21:27:52.093Z,6.20
2024-03-03T21:30:19.528Z,6.38
2024-03-03T21:32:47.009Z,6.24
2024-03-03T21:35:14.559Z,6.34
2024-03-03T21:37:42.212Z,5.77
2024-03-03T21:40:12.829Z,5.07
2024-03-03T21:42:40.426Z,5.94
2024-03-03T21:45:13.449Z,6.34
2024-03-03T21:47:41.000Z,5.92
2024-03-03T21:50:09.151Z,5.42
2024-03-03T21:52:37.122Z,5.45
2024-03-03T21:55:06.103Z,4.74
2024-03-03T21:57:33.599Z,5.62
2024-03-03T22:00:06.600Z,6.23
2024-03-03T22:02:39.939Z,6.09
2024-03-03T22:05:07.654Z,4.67
2024-03-03T22:07:38.333Z,5.12
2024-03-03T22:10:07.405Z,4.99
2024-03-03T22:12:35.122Z,5.80
2024-03-03T22:15:02.546Z,5.71
2024-03-03T22:17:30.269Z,6.04
2024-03-03T22:19:58.646Z,5.84
2024-03-03T22:22:26.140Z,6.03
2024-03-03T22:24:54.685Z,4.79
2024-03-03T22:27:21.955Z,4.82
2024-03-03T22:29:49.395Z,5.67
2024-03-03T22:32:16.580Z,5.76
2024-03-03T22:34:44.339Z,6.09
2024-03-03T22:37:11.805Z,4.91
2024-03-03T22:39:42.235Z,6.08
2024-03-03T22:42:10.092Z,3.47
2024-03-03T22:44:37.964Z,5.60
2024-03-03T22:47:05.647Z,5.48
2024-03-03T22:49:33.316Z,5.60
2024-03-03T22:52:03.429Z,5.81
2024-03-03T22:54:30.776Z,5.10
2024-03-03T22:57:02.693Z,4.50
2024-03-03T22:59:33.604Z,5.67
2024-03-03T23:02:01.122Z,3.51
2024-03-03T23:04:28.761Z,5.58
2024-03-03T23:06:56.379Z,4.45
2024-03-03T23:09:23.744Z,4.13
2024-03-03T23:11:51.212Z,5.26
2024-03-03T23:14:18.573Z,5.26
2024-03-03T23:16:46.039Z,5.37
2024-03-03T23:19:14.873Z,5.24
2024-03-03T23:21:42.378Z,5.61
2024-03-03T23:24:09.762Z,5.11
2024-03-03T23:26:37.204Z,4.99
2024-03-03T23:29:04.924Z,5.27
2024-03-03T23:31:32.625Z,4.94
2024-03-03T23:34:00.180Z,4.69
2024-03-03T23:36:27.777Z,5.06
2024-03-03T23:38:58.104Z,5.15
2024-03-03T23:47:29.425Z,5.30
2024-03-03T23:49:56.932Z,5.14
2024-03-03T23:52:24.359Z,5.31
2024-03-03T23:54:51.647Z,5.26
2024-03-03T23:57:21.251Z,4.98
2024-03-03T23:59:48.549Z,3.76
